createdAt,value
2018-12-12T00:00:14.085Z,18.4
2018-12-12T00:01:15.981Z,18.4
2018-12-12T00:02:17.875Z,18.4
2018-12-12T00:03:19.786Z,18.5
2018-12-12T00:04:21.929Z,18.4
2018-12-12T00:05:23.823Z,18.5
2018-12-12T00:06:25.718Z,18.4
2018-12-12T00:07:27.612Z,18.5
2018-12-12T00:08:29.508Z,18.4
2018-12-12T00:09:30.830Z,18.5
2018-12-12T00:10:32.235Z,18.5
2018-12-12T00:11:33.288Z,18.6
2018-12-12T00:12:35.182Z,18.4
2018-12-12T00:13:37.077Z,18.5
2018-12-12T00:14:38.969Z,18.5
2018-12-12T00:15:40.698Z,18.5
2018-12-12T00:16:42.110Z,18.5
2018-12-12T00:17:43.725Z,18.4
2018-12-12T00:18:44.495Z,18.4
2018-12-12T00:19:45.819Z,18.5
2018-12-12T00:20:46.880Z,18.5
2018-12-12T00:21:48.219Z,18.4
2018-12-12T00:22:49.841Z,18.5
2018-12-12T00:23:51.461Z,18.4
2018-12-12T00:24:53.355Z,18.4
2018-12-12T00:25:54.954Z,18.5
2018-12-12T00:26:56.574Z,18.4
2018-12-12T00:27:57.922Z,18.4
2018-12-12T00:28:59.818Z,18.4
2018-12-12T00:30:01.440Z,18.4
2018-12-12T00:31:02.589Z,18.4
2018-12-12T00:32:03.935Z,18.5
2018-12-12T00:33:05.831Z,18.5
2018-12-12T00:34:07.184Z,18.4
2018-12-12T00:35:08.230Z,18.3
2018-12-12T00:36:09.571Z,18.4
2018-12-12T00:37:11.168Z,18.4
2018-12-12T00:38:12.515Z,18.5
2018-12-12T00:39:13.882Z,18.5
2018-12-12T00:40:15.206Z,18.5
2018-12-12T00:41:16.550Z,18.5
2018-12-12T00:42:17.952Z,18.5
2018-12-12T00:43:19.289Z,18.5
2018-12-12T00:44:20.909Z,18.4
2018-12-12T00:45:22.805Z,18.4
2018-12-12T00:46:24.125Z,18.4
2018-12-12T00:47:26.021Z,18.5
2018-12-12T00:48:27.072Z,18.4
2018-12-12T00:49:28.722Z,18.5
2018-12-12T00:50:30.323Z,18.4
2018-12-12T00:51:31.943Z,18.5
2018-12-12T00:52:33.286Z,18.5
2018-12-12T00:53:35.181Z,18.4
2018-12-12T00:54:37.077Z,18.4
2018-12-12T00:55:38.675Z,18.4
2018-12-12T00:56:40.014Z,18.5
2018-12-12T00:57:41.634Z,18.4
2018-12-12T00:58:43.527Z,18.4
2018-12-12T00:59:44.870Z,18.5
2018-12-12T01:02:46.697Z,18.5
2018-12-12T01:03:48.042Z,18.5
2018-12-12T01:04:49.663Z,18.6
2018-12-12T01:05:51.005Z,18.4
2018-12-12T01:06:52.899Z,18.5
2018-12-12T01:07:54.522Z,18.4
2018-12-12T01:08:55.844Z,18.5
2018-12-12T01:09:57.671Z,18.6
2018-12-12T01:10:58.738Z,18.5
2018-12-12T01:12:00.355Z,18.4
2018-12-12T01:13:01.978Z,18.4
2018-12-12T01:14:02.760Z,18.5
2018-12-12T01:15:04.083Z,18.5
2018-12-12T01:16:05.758Z,18.5
2018-12-12T01:17:07.378Z,18.5
2018-12-12T01:18:08.999Z,18.5
2018-12-12T01:19:10.326Z,18.4
2018-12-12T01:20:11.669Z,18.4
2018-12-12T01:21:13.300Z,18.4
2018-12-12T01:22:14.914Z,18.4
2018-12-12T01:23:16.516Z,18.4
2018-12-12T01:24:18.412Z,18.4
2018-12-12T01:25:20.307Z,18.4
2018-12-12T01:26:21.934Z,18.5
2018-12-12T01:27:23.838Z,18.5
2018-12-12T01:28:25.739Z,18.5
2018-12-12T01:29:27.083Z,18.4
2018-12-12T01:30:28.978Z,18.5
2018-12-12T01:31:30.020Z,18.5
2018-12-12T01:32:31.916Z,18.5
2018-12-12T01:33:33.516Z,18.5
2018-12-12T01:34:34.860Z,18.5
2018-12-12T01:35:36.483Z,18.4
2018-12-12T01:36:38.106Z,18.5
2018-12-12T01:37:39.433Z,18.5
2018-12-12T01:38:40.475Z,18.5
2018-12-12T01:39:41.809Z,18.4
2018-12-12T01:40:43.148Z,18.5
2018-12-12T01:41:45.046Z,18.5
2018-12-12T01:42:46.666Z,18.5
2018-12-12T01:43:48.287Z,18.5
2018-12-12T01:44:49.632Z,18.5
2018-12-12T01:45:51.251Z,18.5
2018-12-12T01:46:52.871Z,18.5
2018-12-12T01:47:54.499Z,18.6
2018-12-12T01:48:56.390Z,18.5
2018-12-12T01:49:57.991Z,18.5
2018-12-12T01:50:59.885Z,18.4
2018-12-12T01:52:01.489Z,18.5
2018-12-12T01:53:03.381Z,18.4
2018-12-12T01:54:04.159Z,18.4
2018-12-12T01:55:05.765Z,18.4
2018-12-12T01:56:06.824Z,18.4
2018-12-12T01:57:08.149Z,18.5
2018-12-12T01:58:10.044Z,18.4
2018-12-12T01:59:11.644Z,18.4
2018-12-12T02:00:13.245Z,18.4
2018-12-12T02:01:14.590Z,18.4
2018-12-12T02:02:16.488Z,18.4
2018-12-12T02:03:18.161Z,18.5
2018-12-12T02:04:20.059Z,18.5
2018-12-12T02:05:22.022Z,18.4
2018-12-12T02:06:23.628Z,18.5
2018-12-12T02:07:25.524Z,18.4
2018-12-12T02:08:27.127Z,18.5
2018-12-12T02:09:28.750Z,18.4
2018-12-12T02:10:30.648Z,18.5
2018-12-12T02:11:31.993Z,18.4
2018-12-12T02:12:33.894Z,18.4
2018-12-12T02:13:35.513Z,18.5
2018-12-12T02:14:36.858Z,18.5
2018-12-12T02:15:38.180Z,18.4
2018-12-12T02:16:39.804Z,18.5
2018-12-12T02:17:41.701Z,18.5
2018-12-12T02:18:43.319Z,18.6
2018-12-12T02:19:44.917Z,18.5
2018-12-12T02:20:46.817Z,18.4
2018-12-12T02:21:48.423Z,18.6
2018-12-12T02:22:50.019Z,18.6
2018-12-12T02:23:51.915Z,18.5
2018-12-12T02:24:53.534Z,18.5
2018-12-12T02:25:55.436Z,18.4
2018-12-12T02:26:56.483Z,18.5
2018-12-12T02:27:58.105Z,18.5
2018-12-12T02:29:00.002Z,18.6
2018-12-12T02:30:01.327Z,18.5
2018-12-12T02:31:02.950Z,18.5
2018-12-12T02:32:04.265Z,18.5
2018-12-12T02:33:05.320Z,18.5
2018-12-12T02:34:07.217Z,18.5
2018-12-12T02:35:09.113Z,18.5
2018-12-12T02:36:10.460Z,18.5
2018-12-12T02:37:11.868Z,18.5
2018-12-12T02:38:13.486Z,18.5
2018-12-12T02:39:15.159Z,18.5
2018-12-12T02:40:17.052Z,18.5
2018-12-12T02:41:18.947Z,18.5
2018-12-12T02:42:20.022Z,18.5
2018-12-12T02:43:21.919Z,18.4
2018-12-12T02:44:23.823Z,18.4
2018-12-12T02:45:25.442Z,18.4
2018-12-12T02:46:27.341Z,18.5
2018-12-12T02:47:29.252Z,18.4
2018-12-12T02:48:30.877Z,18.5
2018-12-12T02:49:32.771Z,18.5
2018-12-12T02:50:34.668Z,18.5
2018-12-12T02:51:36.031Z,18.5
2018-12-12T02:52:37.355Z,18.6
2018-12-12T02:53:38.707Z,18.5
2018-12-12T02:54:40.338Z,18.4
2018-12-12T02:55:41.956Z,18.4
2018-12-12T02:56:43.576Z,18.4
2018-12-12T02:57:44.927Z,18.5
2018-12-12T02:58:46.822Z,18.4
2018-12-12T02:59:48.749Z,18.5
2018-12-12T03:00:50.651Z,18.5
2018-12-12T03:01:52.270Z,18.5
2018-12-12T03:02:54.168Z,18.5
2018-12-12T03:03:55.795Z,18.4
2018-12-12T03:04:57.116Z,18.4
2018-12-12T03:05:58.735Z,18.4
2018-12-12T03:07:00.633Z,18.4
2018-12-12T03:08:02.532Z,18.5
2018-12-12T03:09:03.602Z,18.5
2018-12-12T03:10:04.935Z,18.5
2018-12-12T03:11:06.256Z,18.5
2018-12-12T03:12:07.878Z,18.5
2018-12-12T03:13:09.780Z,18.5
2018-12-12T03:14:11.679Z,18.5
2018-12-12T03:15:13.573Z,18.5
2018-12-12T03:16:15.179Z,18.5
2018-12-12T03:17:16.802Z,18.5
2018-12-12T03:18:18.145Z,18.5
2018-12-12T03:19:20.041Z,18.4
2018-12-12T03:20:21.643Z,18.6
2018-12-12T03:21:23.541Z,18.6
2018-12-12T03:22:24.890Z,18.4
2018-12-12T03:23:26.223Z,18.5
2018-12-12T03:24:27.572Z,18.5
2018-12-12T03:25:29.468Z,18.6
2018-12-12T03:26:30.824Z,18.6
2018-12-12T03:27:32.729Z,18.4
2018-12-12T03:28:34.350Z,18.5
2018-12-12T03:29:36.247Z,18.5
2018-12-12T03:30:37.877Z,18.5
2018-12-12T03:31:39.216Z,18.5
2018-12-12T03:32:41.160Z,18.5
2018-12-12T03:33:43.053Z,18.6
2018-12-12T03:34:44.657Z,18.5
2018-12-12T03:35:45.753Z,18.5
2018-12-12T03:36:47.356Z,18.6
2018-12-12T03:37:48.978Z,18.6
2018-12-12T03:38:50.874Z,18.6
2018-12-12T03:39:52.769Z,18.5
2018-12-12T03:40:54.401Z,18.5
2018-12-12T03:41:56.292Z,18.5
2018-12-12T03:42:57.621Z,18.5
2018-12-12T03:43:59.528Z,18.5
2018-12-12T03:45:01.144Z,18.6
2018-12-12T03:46:02.764Z,18.4
2018-12-12T03:47:04.118Z,18.5
2018-12-12T03:48:05.736Z,18.4
2018-12-12T03:49:07.354Z,18.5
2018-12-12T03:50:08.423Z,18.5
2018-12-12T03:51:09.474Z,18.6
2018-12-12T03:52:10.799Z,18.6
2018-12-12T03:53:12.696Z,18.5
2018-12-12T03:54:14.594Z,18.5
2018-12-12T03:55:15.953Z,18.5
2018-12-12T03:56:17.578Z,18.4
2018-12-12T03:57:19.181Z,18.5
2018-12-12T03:58:20.791Z,18.5
2018-12-12T03:59:22.398Z,18.5
2018-12-12T04:00:24.023Z,18.4
2018-12-12T04:01:25.622Z,18.4
2018-12-12T04:02:27.518Z,18.4
2018-12-12T04:03:28.863Z,18.5
2018-12-12T04:04:30.759Z,18.5
2018-12-12T04:05:32.374Z,18.5
2018-12-12T04:06:33.994Z,18.4
2018-12-12T04:07:35.343Z,18.5
2018-12-12T04:08:37.240Z,18.4
2018-12-12T04:09:39.138Z,18.4
2018-12-12T04:10:40.479Z,18.4
2018-12-12T04:11:42.379Z,18.5
2018-12-12T04:12:43.996Z,18.5
2018-12-12T04:13:45.891Z,18.4
2018-12-12T04:14:47.788Z,18.5
2018-12-12T04:15:49.409Z,18.5
2018-12-12T04:16:50.753Z,18.4
2018-12-12T04:17:52.649Z,18.5
2018-12-12T04:18:54.246Z,18.5
2018-12-12T04:19:55.868Z,18.4
2018-12-12T04:20:57.762Z,18.4
2018-12-12T04:21:59.362Z,18.4
2018-12-12T04:23:00.987Z,18.5
2018-12-12T04:24:02.895Z,18.5
2018-12-12T04:25:04.494Z,18.4
2018-12-12T04:26:06.092Z,18.5
2018-12-12T04:27:07.989Z,18.6
2018-12-12T04:28:09.051Z,18.5
2018-12-12T04:29:10.675Z,18.4
2018-12-12T04:30:12.004Z,18.4
2018-12-12T04:31:13.323Z,18.5
2018-12-12T04:32:14.674Z,18.4
2018-12-12T04:33:16.567Z,18.4
2018-12-12T04:34:18.466Z,18.4
2018-12-12T04:35:20.092Z,18.5
2018-12-12T04:36:21.689Z,18.5
2018-12-12T04:37:23.314Z,18.5
2018-12-12T04:38:25.209Z,18.4
2018-12-12T04:39:26.833Z,18.5
2018-12-12T04:40:28.462Z,18.5
2018-12-12T04:41:30.359Z,18.5
2018-12-12T04:42:31.709Z,18.5
2018-12-12T04:43:33.603Z,18.5
2018-12-12T04:44:35.503Z,18.5
2018-12-12T04:45:36.841Z,18.5
2018-12-12T04:46:38.467Z,18.5
2018-12-12T04:47:39.822Z,18.5
2018-12-12T04:48:41.170Z,18.5
2018-12-12T04:49:42.496Z,18.4
2018-12-12T04:50:44.391Z,18.5
2018-12-12T04:51:46.289Z,18.5
2018-12-12T04:52:47.617Z,18.4
2018-12-12T04:53:48.665Z,18.5
2018-12-12T04:54:50.562Z,18.5
2018-12-12T04:55:52.534Z,18.4
2018-12-12T04:56:54.038Z,18.4
2018-12-12T04:57:55.932Z,18.4
2018-12-12T04:58:57.555Z,18.4
2018-12-12T04:59:59.452Z,18.4
2018-12-12T05:01:01.077Z,18.4
2018-12-12T05:02:02.400Z,18.5
2018-12-12T05:03:03.464Z,18.5
2018-12-12T05:04:04.817Z,18.4
2018-12-12T05:05:06.714Z,18.5
2018-12-12T05:06:08.609Z,18.5
2018-12-12T05:07:10.210Z,18.4
2018-12-12T05:08:12.110Z,18.5
2018-12-12T05:09:13.998Z,18.4
2018-12-12T05:10:15.616Z,18.5
2018-12-12T05:11:17.243Z,18.4
2018-12-12T05:12:19.143Z,18.6
2018-12-12T05:13:20.745Z,18.5
2018-12-12T05:14:22.344Z,18.5
2018-12-12T05:15:24.240Z,18.5
2018-12-12T05:16:26.133Z,18.6
2018-12-12T05:17:27.481Z,18.6
2018-12-12T05:18:29.377Z,18.6
2018-12-12T05:19:31.004Z,18.6
2018-12-12T05:20:32.894Z,18.6
2018-12-12T05:21:34.517Z,18.7
2018-12-12T05:22:36.138Z,18.7
2018-12-12T05:23:37.485Z,18.7
2018-12-12T05:24:39.107Z,18.7
2018-12-12T05:25:41.002Z,18.7
2018-12-12T05:26:42.628Z,18.8
2018-12-12T05:27:43.952Z,18.7
2018-12-12T05:28:45.847Z,18.8
2018-12-12T05:29:46.630Z,18.7
2018-12-12T05:30:48.249Z,18.8
2018-12-12T05:31:49.614Z,18.8
2018-12-12T05:32:51.234Z,18.7
2018-12-12T05:33:52.860Z,18.8
2018-12-12T05:34:54.483Z,18.8
2018-12-12T05:35:55.542Z,18.7
2018-12-12T05:36:57.193Z,18.8
2018-12-12T05:37:58.531Z,18.8
2018-12-12T05:39:00.413Z,18.8
2018-12-12T05:40:02.011Z,18.7
2018-12-12T05:41:02.782Z,18.8
2018-12-12T05:42:04.677Z,18.7
2018-12-12T05:43:06.001Z,18.8
2018-12-12T05:44:07.620Z,18.8
2018-12-12T05:45:09.241Z,18.8
2018-12-12T05:46:11.154Z,18.8
2018-12-12T05:47:12.196Z,18.8
2018-12-12T05:48:12.967Z,18.8
2018-12-12T05:49:14.584Z,18.8
2018-12-12T05:50:16.183Z,18.8
2018-12-12T05:51:17.803Z,18.8
2018-12-12T05:52:19.404Z,18.8
2018-12-12T05:53:20.754Z,18.8
2018-12-12T05:54:22.068Z,18.7
2018-12-12T05:55:23.687Z,18.7
2018-12-12T05:56:25.587Z,18.7
2018-12-12T05:57:27.183Z,18.8
2018-12-12T05:58:28.530Z,18.7
2018-12-12T05:59:30.149Z,18.8
2018-12-12T06:00:31.771Z,18.7
2018-12-12T06:01:33.120Z,18.7
2018-12-12T06:02:35.043Z,18.8
2018-12-12T06:03:36.712Z,18.7
2018-12-12T06:04:38.861Z,18.7
2018-12-12T06:05:40.757Z,18.7
2018-12-12T06:06:42.078Z,18.7
2018-12-12T06:07:43.976Z,18.7
2018-12-12T06:08:45.592Z,18.8
2018-12-12T06:09:46.641Z,18.8
2018-12-12T06:10:48.266Z,18.8
2018-12-12T06:11:49.589Z,18.7
2018-12-12T06:12:50.910Z,18.8
2018-12-12T06:13:52.530Z,18.8
2018-12-12T06:14:54.155Z,18.8
2018-12-12T06:15:55.774Z,18.7
2018-12-12T06:16:57.395Z,18.7
2018-12-12T06:17:59.291Z,18.7
2018-12-12T06:19:00.916Z,18.7
2018-12-12T06:20:02.236Z,18.7
2018-12-12T06:21:03.558Z,18.8
2018-12-12T06:22:05.163Z,18.8
2018-12-12T06:23:06.233Z,18.8
2018-12-12T06:24:07.853Z,18.8
2018-12-12T06:25:09.183Z,18.8
2018-12-12T06:26:10.528Z,18.8
2018-12-12T06:27:12.421Z,18.8
2018-12-12T06:28:14.315Z,18.8
2018-12-12T06:29:15.940Z,18.8
2018-12-12T06:30:17.836Z,18.8
2018-12-12T06:31:19.734Z,18.8
2018-12-12T06:32:21.080Z,18.8
2018-12-12T06:33:22.974Z,18.8
2018-12-12T06:34:24.315Z,18.8
2018-12-12T06:35:25.946Z,18.8
2018-12-12T06:36:27.546Z,18.8
2018-12-12T06:37:29.168Z,18.8
2018-12-12T06:38:30.490Z,18.7
2018-12-12T06:39:32.385Z,18.8
2018-12-12T06:40:34.282Z,18.8
2018-12-12T06:41:35.930Z,18.8
2018-12-12T06:42:37.829Z,18.8
2018-12-12T06:43:38.973Z,18.8
2018-12-12T06:44:40.576Z,18.8
2018-12-12T06:45:42.472Z,18.8
2018-12-12T06:46:44.367Z,18.8
2018-12-12T06:47:45.699Z,18.8
2018-12-12T06:48:47.297Z,18.8
2018-12-12T06:49:48.921Z,18.8
2018-12-12T06:50:50.543Z,18.8
2018-12-12T06:51:51.643Z,18.9
2018-12-12T06:52:53.752Z,18.8
2018-12-12T06:53:54.808Z,18.8
2018-12-12T06:54:56.701Z,18.8
2018-12-12T06:55:58.338Z,18.8
2018-12-12T06:57:00.166Z,18.8
2018-12-12T06:58:01.518Z,18.8
2018-12-12T06:59:03.135Z,18.8
2018-12-12T07:00:04.461Z,18.8
2018-12-12T07:01:06.172Z,18.8
2018-12-12T07:02:07.776Z,18.8
2018-12-12T07:03:09.683Z,18.8
2018-12-12T07:04:11.312Z,18.7
2018-12-12T07:05:12.872Z,18.8
2018-12-12T07:06:16.050Z,18.8
2018-12-12T07:07:17.401Z,18.8
2018-12-12T07:08:19.060Z,18.8
2018-12-12T07:09:20.684Z,18.7
2018-12-12T07:10:22.314Z,18.8
2018-12-12T07:11:24.219Z,18.8
2018-12-12T07:12:25.844Z,18.7
2018-12-12T07:13:27.495Z,18.8
2018-12-12T07:14:36.122Z,18.7
2018-12-12T07:15:37.831Z,18.7
2018-12-12T07:16:38.630Z,18.7
2018-12-12T07:17:40.242Z,18.7
2018-12-12T07:18:42.140Z,18.7
2018-12-12T07:19:43.494Z,18.7
2018-12-12T07:20:45.393Z,18.7
2018-12-12T07:21:46.730Z,18.7
2018-12-12T07:22:48.998Z,18.7
2018-12-12T07:23:50.944Z,18.7
2018-12-12T07:24:51.996Z,18.7
2018-12-12T07:25:53.347Z,18.7
2018-12-12T07:26:54.696Z,18.7
2018-12-12T07:27:56.600Z,18.7
2018-12-12T07:28:58.198Z,18.7
2018-12-12T07:30:00.098Z,18.7
2018-12-12T07:31:01.167Z,18.7
2018-12-12T07:32:03.090Z,18.7
2018-12-12T07:33:05.090Z,18.8
2018-12-12T07:34:06.695Z,18.7
2018-12-12T07:35:08.314Z,18.8
2018-12-12T07:36:09.642Z,18.9
2018-12-12T07:37:11.274Z,18.8
2018-12-12T07:38:12.896Z,18.8
2018-12-12T07:39:17.814Z,18.9
2018-12-12T07:40:19.909Z,18.8
2018-12-12T07:41:20.989Z,18.8
2018-12-12T07:42:22.429Z,18.8
2018-12-12T07:43:24.054Z,18.8
2018-12-12T07:44:25.954Z,18.8
2018-12-12T07:45:27.011Z,18.8
2018-12-12T07:46:28.336Z,18.9
2018-12-12T07:47:29.693Z,18.9
2018-12-12T07:48:30.549Z,18.8
2018-12-12T07:49:32.264Z,18.8
2018-12-12T07:50:33.890Z,18.8
2018-12-12T07:51:35.789Z,18.8
2018-12-12T07:52:37.688Z,18.9
2018-12-12T07:53:39.329Z,18.8
2018-12-12T07:54:41.229Z,18.9
2018-12-12T07:55:42.884Z,18.9
2018-12-12T07:56:44.857Z,18.9
2018-12-12T07:57:46.528Z,18.8
2018-12-12T07:58:48.450Z,18.8
2018-12-12T07:59:50.350Z,18.8
2018-12-12T08:00:51.975Z,18.8
2018-12-12T08:01:53.394Z,18.8
2018-12-12T08:02:55.299Z,18.7
2018-12-12T08:03:56.943Z,18.8
2018-12-12T08:04:58.064Z,18.8
2018-12-12T08:05:59.659Z,18.8
2018-12-12T08:07:01.011Z,18.9
2018-12-12T08:08:02.638Z,18.8
2018-12-12T08:09:04.242Z,18.8
2018-12-12T08:10:05.842Z,18.8
2018-12-12T08:11:07.174Z,18.8
2018-12-12T08:12:09.857Z,18.8
2018-12-12T08:13:11.541Z,18.9
2018-12-12T08:14:13.469Z,18.7
2018-12-12T08:15:15.092Z,18.8
2018-12-12T08:16:16.416Z,18.8
2018-12-12T08:17:18.041Z,18.9
2018-12-12T08:18:19.106Z,18.8
2018-12-12T08:19:20.446Z,18.8
2018-12-12T08:20:22.345Z,18.9
2018-12-12T08:21:23.968Z,18.8
2018-12-12T08:22:25.298Z,18.9
2018-12-12T08:23:26.628Z,18.8
2018-12-12T08:24:28.253Z,18.8
2018-12-12T08:25:29.874Z,18.8
2018-12-12T08:26:31.772Z,18.8
2018-12-12T08:27:33.672Z,18.8
2018-12-12T08:28:35.276Z,18.8
2018-12-12T08:29:37.174Z,18.8
2018-12-12T08:30:38.512Z,18.9
2018-12-12T08:31:39.859Z,18.8
2018-12-12T08:32:41.754Z,18.8
2018-12-12T08:33:43.652Z,18.9
2018-12-12T08:34:44.701Z,18.8
2018-12-12T08:35:46.326Z,18.9
2018-12-12T08:36:47.694Z,18.8
2018-12-12T08:37:49.296Z,18.8
2018-12-12T08:38:51.199Z,18.8
2018-12-12T08:39:52.824Z,18.8
2018-12-12T08:40:54.161Z,18.8
2018-12-12T08:41:55.632Z,18.8
2018-12-12T08:42:57.529Z,18.7
2018-12-12T08:43:59.158Z,18.8
2018-12-12T08:45:00.779Z,18.7
2018-12-12T08:46:02.110Z,18.7
2018-12-12T08:47:03.184Z,18.7
2018-12-12T08:48:05.106Z,18.7
2018-12-12T08:49:08.145Z,18.7
2018-12-12T08:50:09.339Z,18.7
2018-12-12T08:51:10.679Z,18.8
2018-12-12T08:52:12.582Z,18.7
2018-12-12T08:53:14.481Z,18.7
2018-12-12T08:54:15.813Z,18.7
2018-12-12T08:55:17.863Z,18.8
2018-12-12T08:56:19.614Z,18.7
2018-12-12T08:57:21.218Z,18.7
2018-12-12T08:58:22.550Z,18.7
2018-12-12T08:59:24.452Z,18.7
2018-12-12T09:00:25.796Z,18.7
2018-12-12T09:01:27.420Z,18.7
2018-12-12T09:02:29.038Z,18.7
2018-12-12T09:03:30.988Z,18.7
2018-12-12T09:04:32.063Z,18.7
2018-12-12T09:05:33.685Z,18.7
2018-12-12T09:06:35.034Z,18.7
2018-12-12T09:07:36.662Z,18.7
2018-12-12T09:08:38.560Z,18.7
2018-12-12T09:09:40.181Z,18.7
2018-12-12T09:10:41.530Z,18.7
2018-12-12T09:11:42.879Z,18.7
2018-12-12T09:12:44.784Z,18.7
2018-12-12T09:13:45.834Z,18.8
2018-12-12T09:14:47.440Z,18.7
2018-12-12T09:15:49.065Z,18.7
2018-12-12T09:16:50.960Z,18.8
2018-12-12T09:17:52.583Z,18.7
2018-12-12T09:18:54.203Z,18.8
2018-12-12T09:19:55.870Z,18.8
2018-12-12T09:20:57.196Z,18.7
2018-12-12T09:21:58.544Z,18.8
2018-12-12T09:23:00.447Z,18.7
2018-12-12T09:24:02.215Z,18.7
2018-12-12T09:25:03.265Z,18.8
2018-12-12T09:26:04.973Z,18.8
2018-12-12T09:27:06.027Z,18.7
2018-12-12T09:28:07.698Z,18.8
2018-12-12T09:29:09.052Z,18.7
2018-12-12T09:30:10.408Z,18.8
2018-12-12T09:31:12.122Z,18.7
2018-12-12T09:32:14.021Z,18.8
2018-12-12T09:33:15.642Z,18.7
2018-12-12T09:34:17.539Z,18.8
2018-12-12T09:35:19.442Z,18.8
2018-12-12T09:36:21.062Z,18.8
2018-12-12T09:37:22.960Z,18.8
2018-12-12T09:38:24.583Z,18.9
2018-12-12T09:39:26.484Z,18.8
2018-12-12T09:40:27.839Z,18.9
2018-12-12T09:41:29.746Z,18.9
2018-12-12T09:42:31.362Z,18.9
2018-12-12T09:43:32.969Z,18.9
2018-12-12T09:44:34.603Z,18.8
2018-12-12T09:45:35.947Z,18.8
2018-12-12T09:46:37.848Z,18.8
2018-12-12T09:47:39.453Z,18.8
2018-12-12T09:48:41.357Z,18.8
2018-12-12T09:49:42.985Z,18.8
2018-12-12T09:50:44.609Z,18.8
2018-12-12T09:51:46.287Z,18.9
2018-12-12T09:52:47.889Z,18.8
2018-12-12T09:53:49.497Z,18.8
2018-12-12T09:54:50.843Z,18.8
2018-12-12T09:55:52.170Z,18.8
2018-12-12T09:56:53.522Z,18.8
2018-12-12T09:57:54.869Z,18.8
2018-12-12T09:58:56.812Z,18.9
2018-12-12T09:59:58.711Z,18.9
2018-12-12T10:01:00.330Z,18.8
2018-12-12T10:02:02.248Z,18.9
2018-12-12T10:03:03.867Z,18.8
2018-12-12T10:04:07.308Z,19
2018-12-12T10:05:08.714Z,19
2018-12-12T10:06:10.342Z,19
2018-12-12T10:07:12.242Z,18.9
2018-12-12T10:08:13.595Z,18.9
2018-12-12T10:09:15.359Z,19
2018-12-12T10:10:17.266Z,18.9
2018-12-12T10:11:18.598Z,18.9
2018-12-12T10:12:20.548Z,18.9
2018-12-12T10:13:22.448Z,18.9
2018-12-12T10:14:24.060Z,19
2018-12-12T10:15:25.962Z,19.1
2018-12-12T10:16:27.290Z,19
2018-12-12T10:17:28.969Z,19
2018-12-12T10:18:30.318Z,19
2018-12-12T10:19:31.678Z,19.1
2018-12-12T10:20:33.007Z,19.1
2018-12-12T10:21:34.375Z,19.1
2018-12-12T10:22:36.043Z,19.1
2018-12-12T10:23:37.942Z,19.1
2018-12-12T10:24:39.548Z,19.1
2018-12-12T10:25:41.517Z,19.1
2018-12-12T10:26:42.880Z,19.1
2018-12-12T10:27:44.257Z,19.1
2018-12-12T10:28:45.883Z,19.1
2018-12-12T10:29:47.507Z,19.1
2018-12-12T10:30:48.293Z,19
2018-12-12T10:31:49.367Z,19
2018-12-12T10:32:50.542Z,19
2018-12-12T10:33:51.901Z,19
2018-12-12T10:34:53.231Z,19.1
2018-12-12T10:35:54.577Z,19
2018-12-12T10:36:56.201Z,19
2018-12-12T10:37:57.935Z,19
2018-12-12T10:38:59.321Z,19
2018-12-12T10:40:01.238Z,18.9
2018-12-12T10:41:03.131Z,18.9
2018-12-12T10:42:04.739Z,18.9
2018-12-12T10:43:06.358Z,18.9
2018-12-12T10:44:07.983Z,18.9
2018-12-12T10:45:09.881Z,18.9
2018-12-12T10:46:11.779Z,18.9
2018-12-12T10:47:13.681Z,18.9
2018-12-12T10:48:15.732Z,19
2018-12-12T10:49:17.385Z,19
2018-12-12T10:50:18.437Z,18.9
2018-12-12T10:51:19.785Z,19
2018-12-12T10:52:21.414Z,19
2018-12-12T10:53:23.310Z,18.9
2018-12-12T10:54:24.941Z,19
2018-12-12T10:55:26.308Z,18.9
2018-12-12T10:56:28.047Z,18.9
2018-12-12T10:57:29.945Z,19
2018-12-12T10:58:31.327Z,18.9
2018-12-12T10:59:32.973Z,19
2018-12-12T11:00:34.597Z,19
2018-12-12T11:01:36.503Z,18.9
2018-12-12T11:02:37.861Z,19
2018-12-12T11:03:44.079Z,18.9
2018-12-12T11:04:46.278Z,18.9
2018-12-12T11:05:48.193Z,18.9
2018-12-12T11:06:49.821Z,18.9
2018-12-12T11:07:51.484Z,18.9
2018-12-12T11:08:53.385Z,18.9
2018-12-12T11:09:55.016Z,18.9
2018-12-12T11:10:56.352Z,18.9
2018-12-12T11:11:57.403Z,19
2018-12-12T11:12:59.325Z,18.9
2018-12-12T11:14:01.227Z,18.9
2018-12-12T11:15:02.852Z,18.9
2018-12-12T11:16:05.222Z,18.9
2018-12-12T11:17:06.631Z,19
2018-12-12T11:18:07.705Z,18.9
2018-12-12T11:19:08.754Z,18.9
2018-12-12T11:20:10.358Z,18.9
2018-12-12T11:21:11.997Z,18.9
2018-12-12T11:22:13.043Z,18.9
2018-12-12T11:23:14.700Z,18.9
2018-12-12T11:24:16.349Z,18.9
2018-12-12T11:25:17.699Z,18.9
2018-12-12T11:26:19.596Z,18.9
2018-12-12T11:27:21.234Z,18.9
2018-12-12T11:28:23.138Z,18.9
2018-12-12T11:29:24.764Z,18.9
2018-12-12T11:30:26.661Z,18.9
2018-12-12T11:31:27.991Z,19
2018-12-12T11:32:29.342Z,18.9
2018-12-12T11:33:30.962Z,19
2018-12-12T11:34:32.861Z,18.9
2018-12-12T11:35:34.228Z,18.9
2018-12-12T11:36:35.551Z,18.9
2018-12-12T11:37:38.698Z,18.9
2018-12-12T11:38:40.036Z,19
2018-12-12T11:39:41.929Z,19
2018-12-12T11:40:43.259Z,18.8
2018-12-12T11:41:44.890Z,19
2018-12-12T11:42:45.699Z,18.9
2018-12-12T11:43:47.598Z,18.9
2018-12-12T11:44:49.498Z,19
2018-12-12T11:45:51.128Z,19
2018-12-12T11:46:53.025Z,18.9
2018-12-12T11:47:54.652Z,18.9
2018-12-12T11:48:56.548Z,19
2018-12-12T11:49:58.173Z,18.9
2018-12-12T11:50:59.773Z,19
2018-12-12T11:52:01.400Z,18.9
2018-12-12T11:53:02.749Z,18.9
2018-12-12T11:54:04.077Z,18.9
2018-12-12T11:55:05.701Z,19
2018-12-12T11:56:06.480Z,18.9
2018-12-12T11:57:08.377Z,18.9
2018-12-12T11:58:10.277Z,18.9
2018-12-12T11:59:11.602Z,19
2018-12-12T12:00:13.503Z,19.1
2018-12-12T12:01:15.114Z,19.1
2018-12-12T12:02:16.759Z,19
2018-12-12T12:03:18.660Z,19.1
2018-12-12T12:04:19.986Z,19
2018-12-12T12:05:21.672Z,19.1
2018-12-12T12:06:22.996Z,19.1
2018-12-12T12:07:24.893Z,19.1
2018-12-12T12:08:26.792Z,19.1
2018-12-12T12:09:28.625Z,19
2018-12-12T12:10:30.242Z,19.1
2018-12-12T12:11:31.862Z,19.2
2018-12-12T12:12:33.207Z,19.1
2018-12-12T12:13:34.283Z,19.1
2018-12-12T12:14:35.638Z,19.1
2018-12-12T12:15:37.598Z,19.1
2018-12-12T12:16:39.537Z,19.1
2018-12-12T12:17:41.617Z,19.1
2018-12-12T12:18:43.275Z,19.1
2018-12-12T12:19:44.900Z,19.1
2018-12-12T12:20:46.510Z,19.1
2018-12-12T12:21:47.556Z,19.1
2018-12-12T12:22:49.452Z,19.1
2018-12-12T12:23:51.073Z,19.1
2018-12-12T12:24:52.398Z,19.1
2018-12-12T12:25:54.018Z,19.2
2018-12-12T12:26:55.637Z,19.2
2018-12-12T12:27:56.986Z,19.2
2018-12-12T12:28:58.602Z,19.2
2018-12-12T12:30:00.500Z,19.2
2018-12-12T12:31:02.448Z,19.2
2018-12-12T12:32:04.070Z,19.2
2018-12-12T12:33:05.692Z,19.2
2018-12-12T12:34:07.316Z,19.2
2018-12-12T12:35:08.939Z,19.2
2018-12-12T12:36:10.835Z,19.2
2018-12-12T12:37:12.733Z,19.2
2018-12-12T12:38:14.353Z,19.2
2018-12-12T12:39:15.956Z,19.2
2018-12-12T12:40:17.315Z,19.2
2018-12-12T12:41:18.941Z,19.2
2018-12-12T12:42:20.287Z,19.2
2018-12-12T12:43:21.909Z,19.1
2018-12-12T12:44:23.823Z,19.1
2018-12-12T12:45:25.723Z,19.2
2018-12-12T12:46:27.047Z,19.2
2018-12-12T12:47:28.375Z,19.2
2018-12-12T12:48:30.275Z,19.2
2018-12-12T12:49:31.619Z,19.3
2018-12-12T12:50:32.973Z,19.2
2018-12-12T12:51:34.622Z,19.2
2018-12-12T12:52:36.226Z,19.2
2018-12-12T12:53:38.121Z,19.2
2018-12-12T12:54:39.741Z,19.3
2018-12-12T12:55:41.638Z,19.3
2018-12-12T12:56:43.262Z,19.3
2018-12-12T12:57:45.156Z,19.3
2018-12-12T12:58:46.778Z,19.3
2018-12-12T12:59:48.140Z,19.3
2018-12-12T13:00:49.756Z,19.3
2018-12-12T13:01:51.377Z,19.2
2018-12-12T13:02:54.314Z,19.2
2018-12-12T13:03:55.716Z,19.3
2018-12-12T13:04:57.059Z,19.3
2018-12-12T13:05:58.959Z,19.2
2018-12-12T13:07:00.852Z,19.2
2018-12-12T13:08:02.453Z,19.2
2018-12-12T13:09:03.783Z,19.2
2018-12-12T13:10:11.310Z,19.3
2018-12-12T13:11:14.889Z,19.3
2018-12-12T13:12:16.101Z,19.3
2018-12-12T13:13:18.313Z,19.4
2018-12-12T13:14:20.873Z,19.3
2018-12-12T13:15:22.521Z,19.3
2018-12-12T13:16:23.845Z,19.3
2018-12-12T13:17:25.472Z,19.3
2018-12-12T13:18:27.367Z,19.2
2018-12-12T13:19:28.990Z,19.2
2018-12-12T13:20:30.605Z,19.2
2018-12-12T13:21:32.333Z,19.2
2018-12-12T13:22:34.232Z,19.2
2018-12-12T13:23:36.128Z,19.2
2018-12-12T13:24:37.475Z,19.1
2018-12-12T13:25:39.082Z,19.1
2018-12-12T13:26:40.411Z,19.1
2018-12-12T13:27:41.471Z,19.1
2018-12-12T13:28:42.816Z,19.1
2018-12-12T13:29:44.438Z,19.2
2018-12-12T13:30:46.038Z,19.1
2018-12-12T13:31:47.437Z,19.1
2018-12-12T13:32:49.037Z,19.1
2018-12-12T13:33:50.936Z,19.1
2018-12-12T13:34:52.835Z,19.2
2018-12-12T13:35:54.456Z,19.2
2018-12-12T13:36:56.354Z,19.2
2018-12-12T13:37:57.980Z,19.1
2018-12-12T13:38:59.325Z,19.2
2018-12-12T13:40:00.657Z,19.1
2018-12-12T13:41:02.277Z,19.1
2018-12-12T13:42:03.602Z,19.1
2018-12-12T13:43:04.952Z,19.1
2018-12-12T13:44:06.288Z,19.1
2018-12-12T13:45:08.179Z,19.1